LROP/OTP METAR and TAF weather

Enter ICAO airport designator
Station Type Date Time Source
LROP METAR 2019/02/17 16:00 UTC NOAA

LROP 171600Z 22007KT CAVOK 10/04 Q1023 NOSIG


Station Type Date Time Source
LROP Decoded METAR 2019/02/17 16:00 UTC NOAA

Bucuresti Otopeni, Romania (LROP) 44-33N 026-06E 95M
Feb 17, 2019 - 11:00 AM EST / 2019.02.17 1600 UTC
Wind: from the SW (220 degrees) at 8 MPH (7 KT):0
Visibility: greater than 7 mile(s):0
Temperature: 50 F (10 C)
Dew Point: 39 F (4 C)
Relative Humidity: 66%
Pressure (altimeter): 30.21 in. Hg (1023 hPa)
ob: LROP 171600Z 22007KT CAVOK 10/04 Q1023 NOSIG
cycle: 16

Station Type Date Time Source
LROP TAF 2019/02/17 12:36 UTC NOAA

TAF LROP 171100Z 1712/1812 24010KT CAVOK
BECMG 1720/1722 VRB04KT 3000 BR
BECMG 1800/1802 1500 BR BKN005
TEMPO 1803/1806 0600 FZFG BKN002
BECMG 1806/1808 5000 BKN015
BECMG 1808/1810 9999 NSW SCT035


Example: see airport list